Martha, Kentucky
Current Conditions -  °F | °C
As of 6:35 AM on Friday 31 Oct 2014 (Local Time) from KSJS Reporting Station
Broken Clouds Broken Clouds  
Wind Chill: 37°   Ceiling: 7500
Heat Index: 37°   Visibility: 10mi
Dew Point: 37°   Wind: 0mph
Humidity: 99%   Direction: NA
Pressure: 29.98"   Gusts: NA
Location:  38.01°N, 82.91°W
Report Text: KSJS 311035Z AUTO 00000KT 10SM BKN075 BKN110 03/03 A2998 RMK AO2 T00260025
Loading
Personal Weather Stations






























Interactive Weather Map
Tropical Storm Tracking
New forecast layout! Learn more

10-Day Weather Forecast

Advertisements
Track Severe Weather on mobile